createdAt,value
2019-01-09T00:00:07.920Z,994.64
2019-01-09T00:01:07.910Z,994.63
2019-01-09T00:02:07.896Z,994.67
2019-01-09T00:03:07.887Z,994.62
2019-01-09T00:04:07.875Z,994.64
2019-01-09T00:05:07.867Z,994.64
2019-01-09T00:06:07.852Z,994.73
2019-01-09T00:07:07.843Z,994.67
2019-01-09T00:08:07.833Z,994.68
2019-01-09T00:09:07.825Z,994.64
2019-01-09T00:10:07.809Z,994.71
2019-01-09T00:11:07.798Z,994.57
2019-01-09T00:12:07.789Z,994.63
2019-01-09T00:13:07.779Z,994.73
2019-01-09T00:14:07.766Z,994.66
2019-01-09T00:15:07.758Z,994.74
2019-01-09T00:16:07.745Z,994.66
2019-01-09T00:17:07.735Z,994.68
2019-01-09T00:18:07.726Z,994.68
2019-01-09T00:19:07.717Z,994.72
2019-01-09T00:20:07.703Z,994.72
2019-01-09T00:21:07.691Z,994.69
2019-01-09T00:22:07.680Z,994.76
2019-01-09T00:23:07.670Z,994.72
2019-01-09T00:24:07.660Z,994.70
2019-01-09T00:25:07.650Z,994.78
2019-01-09T00:26:07.637Z,994.76
2019-01-09T00:27:07.626Z,994.79
2019-01-09T00:28:07.616Z,994.77
2019-01-09T00:29:07.609Z,994.78
2019-01-09T00:30:07.592Z,994.80
2019-01-09T00:31:07.582Z,994.80
2019-01-09T00:32:07.573Z,994.83
2019-01-09T00:33:07.560Z,994.82
2019-01-09T00:34:07.550Z,994.84
2019-01-09T00:35:07.542Z,994.81
2019-01-09T00:36:07.528Z,994.79
2019-01-09T00:37:07.517Z,994.80
2019-01-09T00:38:07.508Z,994.73
2019-01-09T00:39:07.495Z,994.80
2019-01-09T00:40:07.487Z,994.88
2019-01-09T00:41:07.475Z,994.83
2019-01-09T00:42:07.466Z,994.84
2019-01-09T00:43:07.455Z,994.84
2019-01-09T00:44:07.441Z,994.87
2019-01-09T00:45:07.431Z,994.87
2019-01-09T00:46:07.419Z,994.84
2019-01-09T00:47:07.413Z,994.88
2019-01-09T00:48:07.398Z,994.91
2019-01-09T00:49:07.388Z,994.91
2019-01-09T00:50:07.376Z,994.93
2019-01-09T00:51:07.366Z,994.85
2019-01-09T00:52:07.357Z,994.95
2019-01-09T00:53:07.349Z,994.90
2019-01-09T00:54:07.333Z,994.91
2019-01-09T00:55:07.322Z,994.92
2019-01-09T00:56:07.311Z,994.97
2019-01-09T00:57:07.302Z,994.97
2019-01-09T00:58:07.289Z,994.95
2019-01-09T00:59:07.278Z,995.00
2019-01-09T01:00:07.268Z,995.03
2019-01-09T01:01:07.272Z,995.03
2019-01-09T01:02:07.250Z,995.03
2019-01-09T01:03:07.236Z,995.03
2019-01-09T01:04:07.229Z,995.06
2019-01-09T01:05:07.232Z,995.09
2019-01-09T01:06:07.210Z,995.12
2019-01-09T01:07:07.201Z,995.08
2019-01-09T01:08:07.176Z,995.09
2019-01-09T01:09:07.176Z,995.16
2019-01-09T01:10:07.160Z,995.10
2019-01-09T01:11:07.150Z,995.12
2019-01-09T01:12:07.141Z,995.16
2019-01-09T01:13:07.126Z,995.13
2019-01-09T01:14:07.116Z,995.16
2019-01-09T01:15:07.106Z,995.12
2019-01-09T01:16:07.097Z,995.11
2019-01-09T01:17:07.086Z,995.14
2019-01-09T01:18:07.073Z,995.16
2019-01-09T01:19:07.061Z,995.22
2019-01-09T01:20:07.050Z,995.25
2019-01-09T01:21:07.043Z,995.20
2019-01-09T01:22:07.030Z,995.21
2019-01-09T01:23:07.021Z,995.31
2019-01-09T01:24:07.008Z,995.34
2019-01-09T01:25:06.995Z,995.27
2019-01-09T01:26:06.985Z,995.29
2019-01-09T01:27:06.974Z,995.30
2019-01-09T01:28:06.965Z,995.37
2019-01-09T01:29:06.954Z,995.34
2019-01-09T01:30:07.013Z,995.37
2019-01-09T01:31:06.931Z,995.39
2019-01-09T01:32:06.925Z,995.33
2019-01-09T01:33:06.911Z,995.45
2019-01-09T01:34:06.899Z,995.42
2019-01-09T01:35:06.890Z,995.41
2019-01-09T01:36:06.877Z,995.49
2019-01-09T01:37:06.865Z,995.41
2019-01-09T01:38:06.855Z,995.48
2019-01-09T01:39:06.842Z,995.47
2019-01-09T01:40:06.833Z,995.46
2019-01-09T01:41:06.822Z,995.54
2019-01-09T01:42:06.810Z,995.52
2019-01-09T01:43:06.890Z,995.55
2019-01-09T01:44:06.791Z,995.54
2019-01-09T01:45:06.777Z,995.57
2019-01-09T01:46:06.768Z,995.57
2019-01-09T01:47:06.756Z,995.60
2019-01-09T01:48:06.746Z,995.68
2019-01-09T01:49:06.735Z,995.63
2019-01-09T01:50:06.723Z,995.62
2019-01-09T01:51:06.713Z,995.63
2019-01-09T01:52:06.701Z,995.62
2019-01-09T01:53:06.691Z,995.59
2019-01-09T01:54:06.679Z,995.57
2019-01-09T01:55:06.669Z,995.63
2019-01-09T01:56:06.659Z,995.64
2019-01-09T01:57:06.646Z,995.64
2019-01-09T01:58:06.635Z,995.63
2019-01-09T01:59:06.626Z,995.63
2019-01-09T02:00:06.612Z,995.68
2019-01-09T02:01:06.604Z,995.73
2019-01-09T02:02:06.593Z,995.71
2019-01-09T02:03:06.581Z,995.69
2019-01-09T02:04:06.571Z,995.80
2019-01-09T02:05:06.560Z,995.69
2019-01-09T02:06:06.551Z,995.81
2019-01-09T02:07:06.541Z,995.81
2019-01-09T02:08:06.528Z,995.77
2019-01-09T02:09:06.516Z,995.84
2019-01-09T02:10:06.503Z,995.86
2019-01-09T02:11:06.494Z,995.86
2019-01-09T02:12:06.483Z,995.80
2019-01-09T02:13:06.472Z,995.97
2019-01-09T02:14:06.462Z,995.89
2019-01-09T02:15:06.449Z,995.93
2019-01-09T02:16:06.441Z,995.92
2019-01-09T02:17:06.427Z,995.91
2019-01-09T02:18:06.416Z,995.94
2019-01-09T02:19:06.404Z,996.00
2019-01-09T02:20:06.394Z,995.97
2019-01-09T02:21:06.384Z,995.99
2019-01-09T02:22:06.372Z,996.03
2019-01-09T02:23:06.359Z,996.11
2019-01-09T02:24:06.348Z,996.02
2019-01-09T02:25:06.338Z,996.13
2019-01-09T02:26:06.333Z,996.10
2019-01-09T02:27:06.316Z,996.12
2019-01-09T02:28:06.305Z,996.14
2019-01-09T02:29:06.292Z,996.10
2019-01-09T02:30:06.285Z,996.17
2019-01-09T02:31:06.270Z,996.13
2019-01-09T02:32:06.266Z,996.20
2019-01-09T02:33:06.248Z,996.22
2019-01-09T02:34:06.238Z,996.24
2019-01-09T02:35:06.227Z,996.24
2019-01-09T02:36:13.331Z,996.24
2019-01-09T02:37:06.208Z,996.28
2019-01-09T02:38:06.192Z,996.26
2019-01-09T02:39:06.181Z,996.30
2019-01-09T02:40:06.184Z,996.35
2019-01-09T02:41:06.162Z,996.33
2019-01-09T02:42:06.150Z,996.33
2019-01-09T02:43:06.137Z,996.28
2019-01-09T02:44:06.136Z,996.34
2019-01-09T02:45:06.121Z,996.30
2019-01-09T02:46:06.104Z,996.33
2019-01-09T02:47:06.094Z,996.40
2019-01-09T02:48:06.084Z,996.38
2019-01-09T02:49:06.073Z,996.33
2019-01-09T02:50:06.062Z,996.38
2019-01-09T02:51:06.051Z,996.33
2019-01-09T02:52:06.041Z,996.44
2019-01-09T02:53:06.028Z,996.39
2019-01-09T02:54:06.016Z,996.39
2019-01-09T02:55:06.005Z,996.37
2019-01-09T02:56:05.995Z,996.42
2019-01-09T02:57:05.984Z,996.44
2019-01-09T02:58:05.972Z,996.42
2019-01-09T02:59:05.963Z,996.40
2019-01-09T03:00:05.956Z,996.38
2019-01-09T03:01:05.939Z,996.41
2019-01-09T03:02:05.927Z,996.46
2019-01-09T03:03:05.917Z,996.39
2019-01-09T03:04:05.906Z,996.41
2019-01-09T03:05:05.898Z,996.45
2019-01-09T03:06:05.885Z,996.47
2019-01-09T03:07:05.870Z,996.48
2019-01-09T03:08:05.861Z,996.42
2019-01-09T03:09:05.851Z,996.48
2019-01-09T03:10:05.839Z,996.44
2019-01-09T03:11:05.830Z,996.51
2019-01-09T03:12:05.817Z,996.52
2019-01-09T03:13:05.811Z,996.49
2019-01-09T03:14:05.799Z,996.41
2019-01-09T03:15:05.783Z,996.47
2019-01-09T03:16:05.772Z,996.48
2019-01-09T03:17:05.765Z,996.46
2019-01-09T03:18:05.750Z,996.52
2019-01-09T03:19:05.744Z,996.49
2019-01-09T03:20:05.729Z,996.49
2019-01-09T03:21:05.719Z,996.54
2019-01-09T03:22:05.707Z,996.51
2019-01-09T03:23:05.693Z,996.51
2019-01-09T03:24:05.685Z,996.56
2019-01-09T03:25:05.674Z,996.59
2019-01-09T03:26:05.664Z,996.53
2019-01-09T03:27:05.652Z,996.50
2019-01-09T03:28:05.643Z,996.55
2019-01-09T03:29:05.629Z,996.59
2019-01-09T03:30:05.616Z,996.60
2019-01-09T03:31:05.607Z,996.63
2019-01-09T03:32:05.598Z,996.64
2019-01-09T03:33:05.609Z,996.61
2019-01-09T03:34:05.572Z,996.66
2019-01-09T03:35:05.563Z,996.64
2019-01-09T03:36:05.551Z,996.65
2019-01-09T03:37:05.548Z,996.67
2019-01-09T03:38:05.530Z,996.70
2019-01-09T03:39:05.518Z,996.71
2019-01-09T03:40:05.508Z,996.73
2019-01-09T03:41:05.497Z,996.71
2019-01-09T03:42:05.488Z,996.70
2019-01-09T03:43:05.474Z,996.75
2019-01-09T03:44:05.464Z,996.70
2019-01-09T03:45:05.456Z,996.73
2019-01-09T03:46:05.440Z,996.72
2019-01-09T03:47:05.431Z,996.68
2019-01-09T03:48:05.418Z,996.73
2019-01-09T03:49:05.408Z,996.79
2019-01-09T03:50:05.400Z,996.79
2019-01-09T03:51:05.389Z,996.76
2019-01-09T03:52:05.373Z,996.81
2019-01-09T03:53:05.362Z,996.67
2019-01-09T03:54:05.355Z,996.72
2019-01-09T03:55:05.341Z,996.76
2019-01-09T03:56:05.330Z,996.83
2019-01-09T03:57:05.319Z,996.76
2019-01-09T03:58:05.311Z,996.82
2019-01-09T03:59:05.298Z,996.81
2019-01-09T04:00:05.287Z,996.84
2019-01-09T04:01:05.274Z,996.78
2019-01-09T04:02:05.261Z,996.83
2019-01-09T04:03:05.252Z,996.90
2019-01-09T04:04:05.241Z,996.91
2019-01-09T04:05:05.231Z,996.93
2019-01-09T04:06:05.220Z,996.93
2019-01-09T04:07:05.206Z,996.97
2019-01-09T04:08:05.197Z,997.04
2019-01-09T04:09:05.188Z,997.02
2019-01-09T04:10:05.174Z,997.04
2019-01-09T04:11:05.177Z,997.10
2019-01-09T04:12:05.152Z,997.07
2019-01-09T04:13:05.143Z,997.08
2019-01-09T04:14:05.133Z,997.04
2019-01-09T04:15:05.116Z,997.04
2019-01-09T04:16:05.110Z,997.07
2019-01-09T04:17:05.096Z,997.12
2019-01-09T04:18:05.086Z,997.12
2019-01-09T04:19:05.070Z,997.20
2019-01-09T04:20:05.061Z,997.13
2019-01-09T04:21:05.055Z,997.01
2019-01-09T04:22:05.041Z,997.05
2019-01-09T04:23:05.029Z,997.15
2019-01-09T04:24:05.017Z,997.14
2019-01-09T04:25:05.007Z,997.17
2019-01-09T04:26:04.996Z,997.15
2019-01-09T04:27:04.996Z,997.15
2019-01-09T04:28:04.973Z,997.07
2019-01-09T04:29:04.968Z,997.25
2019-01-09T04:30:04.953Z,997.24
2019-01-09T04:31:04.944Z,997.18
2019-01-09T04:32:04.951Z,997.19
2019-01-09T04:33:04.917Z,997.23
2019-01-09T04:34:04.910Z,997.22
2019-01-09T04:35:04.896Z,997.20
2019-01-09T04:36:04.887Z,997.20
2019-01-09T04:37:04.875Z,997.22
2019-01-09T04:38:04.868Z,997.29
2019-01-09T04:39:04.853Z,997.20
2019-01-09T04:40:04.843Z,997.25
2019-01-09T04:41:04.832Z,997.22
2019-01-09T04:42:04.819Z,997.26
2019-01-09T04:43:04.811Z,997.28
2019-01-09T04:44:04.808Z,997.21
2019-01-09T04:45:04.792Z,997.30
2019-01-09T04:46:04.774Z,997.25
2019-01-09T04:47:04.764Z,997.27
2019-01-09T04:48:04.812Z,997.26
2019-01-09T04:49:04.741Z,997.17
2019-01-09T04:50:04.730Z,997.26
2019-01-09T04:51:04.723Z,997.29
2019-01-09T04:52:04.715Z,997.32
2019-01-09T04:53:04.698Z,997.35
2019-01-09T04:54:04.686Z,997.29
2019-01-09T04:55:04.682Z,997.32
2019-01-09T04:56:04.661Z,997.33
2019-01-09T04:57:04.655Z,997.36
2019-01-09T04:58:04.641Z,997.36
2019-01-09T04:59:04.633Z,997.33
2019-01-09T05:00:04.619Z,997.34
2019-01-09T05:01:04.607Z,997.33
2019-01-09T05:02:04.598Z,997.42
2019-01-09T05:03:04.588Z,997.37
2019-01-09T05:04:04.580Z,997.31
2019-01-09T05:05:04.563Z,997.44
2019-01-09T05:06:04.552Z,997.37
2019-01-09T05:07:04.539Z,997.41
2019-01-09T05:08:04.530Z,997.41
2019-01-09T05:09:04.522Z,997.37
2019-01-09T05:10:04.510Z,997.41
2019-01-09T05:11:04.498Z,997.34
2019-01-09T05:12:04.487Z,997.38
2019-01-09T05:13:04.473Z,997.32
2019-01-09T05:14:04.463Z,997.45
2019-01-09T05:15:04.452Z,997.45
2019-01-09T05:16:04.440Z,997.45
2019-01-09T05:17:04.430Z,997.51
2019-01-09T05:18:04.420Z,997.53
2019-01-09T05:19:04.411Z,997.52
2019-01-09T05:20:04.400Z,997.53
2019-01-09T05:21:04.392Z,997.53
2019-01-09T05:22:04.373Z,997.52
2019-01-09T05:23:04.366Z,997.53
2019-01-09T05:24:04.353Z,997.54
2019-01-09T05:25:04.342Z,997.53
2019-01-09T05:26:04.326Z,997.59
2019-01-09T05:27:04.319Z,997.58
2019-01-09T05:28:04.309Z,997.62
2019-01-09T05:29:04.298Z,997.60
2019-01-09T05:30:04.284Z,997.63
2019-01-09T05:31:07.758Z,997.62
2019-01-09T05:32:04.263Z,997.49
2019-01-09T05:33:04.254Z,997.64
2019-01-09T05:34:04.243Z,997.65
2019-01-09T05:35:04.231Z,997.64
2019-01-09T05:36:04.219Z,997.67
2019-01-09T05:37:09.439Z,997.64
2019-01-09T05:38:04.198Z,997.64
2019-01-09T05:39:04.186Z,997.67
2019-01-09T05:40:04.175Z,997.71
2019-01-09T05:41:04.166Z,997.43
2019-01-09T05:42:04.154Z,997.65
2019-01-09T05:43:04.142Z,997.67
2019-01-09T05:44:04.132Z,997.68
2019-01-09T05:45:04.120Z,997.64
2019-01-09T05:46:04.127Z,997.67
2019-01-09T05:47:04.099Z,997.80
2019-01-09T05:48:04.087Z,997.72
2019-01-09T05:49:04.075Z,997.68
2019-01-09T05:50:04.063Z,997.73
2019-01-09T05:51:04.052Z,997.75
2019-01-09T05:52:04.041Z,997.82
2019-01-09T05:53:04.078Z,997.81
2019-01-09T05:54:04.018Z,997.83
2019-01-09T05:55:04.007Z,997.86
2019-01-09T05:56:03.996Z,997.83
2019-01-09T05:57:03.990Z,997.86
2019-01-09T05:58:03.973Z,997.86
2019-01-09T05:59:03.963Z,997.88
2019-01-09T06:00:04.043Z,997.88
2019-01-09T06:01:03.940Z,997.88
2019-01-09T06:02:03.928Z,997.93
2019-01-09T06:03:03.917Z,997.94
2019-01-09T06:04:03.906Z,997.94
2019-01-09T06:05:03.894Z,997.89
2019-01-09T06:06:03.884Z,997.96
2019-01-09T06:07:03.874Z,997.97
2019-01-09T06:08:03.863Z,998.00
2019-01-09T06:09:03.851Z,997.96
2019-01-09T06:10:03.841Z,998.00
2019-01-09T06:11:03.835Z,998.00
2019-01-09T06:12:03.817Z,997.95
2019-01-09T06:13:03.806Z,998.04
2019-01-09T06:14:03.793Z,997.99
2019-01-09T06:15:03.785Z,997.93
2019-01-09T06:16:03.773Z,998.01
2019-01-09T06:17:03.762Z,998.07
2019-01-09T06:18:03.750Z,997.99
2019-01-09T06:19:03.737Z,998.13
2019-01-09T06:20:03.728Z,998.17
2019-01-09T06:21:03.716Z,998.14
2019-01-09T06:22:03.704Z,998.05
2019-01-09T06:23:03.692Z,998.16
2019-01-09T06:24:03.682Z,998.10
2019-01-09T06:25:03.678Z,998.10
2019-01-09T06:26:03.660Z,998.18
2019-01-09T06:27:03.649Z,998.21
2019-01-09T06:28:03.643Z,998.23
2019-01-09T06:29:03.626Z,998.23
2019-01-09T06:30:03.613Z,998.27
2019-01-09T06:31:03.601Z,998.27
2019-01-09T06:32:03.591Z,998.24
2019-01-09T06:33:03.580Z,998.32
2019-01-09T06:34:03.571Z,998.30
2019-01-09T06:35:03.559Z,998.32
2019-01-09T06:36:04.020Z,998.28
2019-01-09T06:37:03.537Z,998.36
2019-01-09T06:38:03.520Z,998.35
2019-01-09T06:39:03.512Z,998.39
2019-01-09T06:40:03.498Z,998.34
2019-01-09T06:41:03.494Z,998.38
2019-01-09T06:42:03.477Z,998.39
2019-01-09T06:43:03.464Z,998.36
2019-01-09T06:44:03.456Z,998.37
2019-01-09T06:45:03.447Z,998.35
2019-01-09T06:46:03.430Z,998.34
2019-01-09T06:47:03.424Z,998.35
2019-01-09T06:48:03.412Z,998.36
2019-01-09T06:49:03.398Z,998.37
2019-01-09T06:50:03.385Z,998.34
2019-01-09T06:51:03.375Z,998.36
2019-01-09T06:52:03.364Z,998.34
2019-01-09T06:53:03.352Z,998.38
2019-01-09T06:54:03.370Z,998.42
2019-01-09T06:55:03.372Z,998.34
2019-01-09T06:56:03.333Z,998.53
2019-01-09T06:57:03.310Z,998.49
2019-01-09T06:58:03.295Z,998.53
2019-01-09T06:59:03.284Z,998.48
2019-01-09T07:00:03.275Z,998.49
2019-01-09T07:01:03.264Z,998.50
2019-01-09T07:02:03.251Z,998.61
2019-01-09T07:03:03.239Z,998.50
2019-01-09T07:04:03.228Z,998.65
2019-01-09T07:05:03.217Z,998.62
2019-01-09T07:06:03.204Z,998.57
2019-01-09T07:07:03.195Z,998.61
2019-01-09T07:08:03.182Z,998.58
2019-01-09T07:09:03.174Z,998.67
2019-01-09T07:10:03.161Z,998.69
2019-01-09T07:11:03.148Z,998.53
2019-01-09T07:12:03.136Z,998.71
2019-01-09T07:13:03.180Z,998.74
2019-01-09T07:14:03.108Z,998.73
2019-01-09T07:15:11.061Z,998.75
2019-01-09T07:16:03.095Z,998.78
2019-01-09T07:17:03.078Z,998.73
2019-01-09T07:18:03.068Z,998.80
2019-01-09T07:19:03.057Z,998.75
2019-01-09T07:20:03.043Z,998.80
2019-01-09T07:21:03.034Z,998.93
2019-01-09T07:22:03.026Z,998.72
2019-01-09T07:23:03.012Z,998.82
2019-01-09T07:24:02.996Z,998.84
2019-01-09T07:25:02.990Z,998.86
2019-01-09T07:26:02.974Z,998.85
2019-01-09T07:27:02.963Z,998.85
2019-01-09T07:28:02.952Z,998.79
2019-01-09T07:29:02.942Z,998.91
2019-01-09T07:30:02.929Z,998.95
2019-01-09T07:31:02.922Z,998.98
2019-01-09T07:32:02.912Z,998.96
2019-01-09T07:33:02.897Z,999.04
2019-01-09T07:34:02.951Z,999.02
2019-01-09T07:35:02.877Z,999.01
2019-01-09T07:36:02.866Z,999.03
2019-01-09T07:37:02.850Z,999.04
2019-01-09T07:38:02.837Z,999.07
2019-01-09T07:39:02.826Z,999.05
2019-01-09T07:40:02.815Z,999.08
2019-01-09T07:41:02.804Z,999.02
2019-01-09T07:42:02.792Z,999.12
2019-01-09T07:43:02.783Z,999.10
2019-01-09T07:44:02.770Z,999.14
2019-01-09T07:45:02.765Z,999.18
2019-01-09T07:46:02.744Z,999.19
2019-01-09T07:47:02.734Z,999.23
2019-01-09T07:48:02.722Z,999.20
2019-01-09T07:49:02.711Z,999.20
2019-01-09T07:50:02.698Z,999.25
2019-01-09T07:51:02.689Z,999.22
2019-01-09T07:52:02.679Z,999.20
2019-01-09T07:53:02.666Z,999.30
2019-01-09T07:54:02.656Z,999.16
2019-01-09T07:55:02.642Z,999.14
2019-01-09T07:56:02.630Z,999.17
2019-01-09T07:57:02.620Z,999.18
2019-01-09T07:58:02.609Z,999.35
2019-01-09T07:59:02.597Z,999.35
2019-01-09T08:00:02.587Z,999.33
2019-01-09T08:01:02.572Z,999.35
2019-01-09T08:02:02.561Z,999.27
2019-01-09T08:03:02.553Z,999.47
2019-01-09T08:04:02.538Z,999.42
2019-01-09T08:05:02.529Z,999.45
2019-01-09T08:06:02.514Z,999.51
2019-01-09T08:07:02.501Z,999.48
2019-01-09T08:08:02.491Z,999.56
2019-01-09T08:09:02.479Z,999.53
2019-01-09T08:10:02.466Z,999.54
2019-01-09T08:11:02.458Z,999.58
2019-01-09T08:12:02.447Z,999.59
2019-01-09T08:13:02.433Z,999.58
2019-01-09T08:14:02.423Z,999.62
2019-01-09T08:15:02.408Z,999.68
2019-01-09T08:16:02.397Z,999.64
2019-01-09T08:17:02.387Z,999.64
2019-01-09T08:18:02.374Z,999.68
2019-01-09T08:19:02.426Z,999.74
2019-01-09T08:20:02.353Z,999.73
2019-01-09T08:21:05.568Z,999.73
2019-01-09T08:22:02.328Z,999.85
2019-01-09T08:23:02.317Z,999.79
2019-01-09T08:24:02.309Z,999.80
2019-01-09T08:25:02.295Z,999.80
2019-01-09T08:26:02.283Z,999.78
2019-01-09T08:27:02.274Z,999.91
2019-01-09T08:28:02.331Z,999.92
2019-01-09T08:29:02.248Z,999.90
2019-01-09T08:30:02.238Z,999.89
2019-01-09T08:31:02.223Z,999.88
2019-01-09T08:32:02.215Z,999.88
2019-01-09T08:33:02.202Z,999.93
2019-01-09T08:34:02.190Z,999.99
2019-01-09T08:35:02.179Z,999.90
2019-01-09T08:36:02.172Z,1000.01
2019-01-09T08:37:02.156Z,1000.01
2019-01-09T08:38:02.990Z,1000.07
2019-01-09T08:39:02.132Z,999.99
2019-01-09T08:40:02.119Z,1000.06
2019-01-09T08:41:02.111Z,1000.03
2019-01-09T08:42:02.096Z,1000.07
2019-01-09T08:43:02.086Z,1000.15
2019-01-09T08:44:02.073Z,1000.15
2019-01-09T08:45:02.066Z,1000.15
2019-01-09T08:46:02.050Z,1000.18
2019-01-09T08:47:02.039Z,1000.21
2019-01-09T08:48:02.029Z,1000.14
2019-01-09T08:49:02.023Z,1000.21
2019-01-09T08:50:02.012Z,1000.23
2019-01-09T08:51:01.992Z,1000.23
2019-01-09T08:52:01.988Z,1000.20
2019-01-09T08:53:01.971Z,1000.26
2019-01-09T08:54:01.958Z,1000.31
2019-01-09T08:55:01.946Z,1000.34
2019-01-09T08:56:01.935Z,1000.30
2019-01-09T08:57:01.925Z,1000.34
2019-01-09T08:58:01.913Z,1000.42
2019-01-09T08:59:01.900Z,1000.44
2019-01-09T09:00:01.892Z,1000.29
2019-01-09T09:01:01.881Z,1000.41
2019-01-09T09:02:01.877Z,1000.33
2019-01-09T09:03:01.855Z,1000.45
2019-01-09T09:04:01.841Z,1000.48
2019-01-09T09:05:01.831Z,1000.49
2019-01-09T09:06:01.820Z,1000.52
2019-01-09T09:07:01.806Z,1000.50
2019-01-09T09:08:01.803Z,1000.53
2019-01-09T09:09:01.792Z,1000.53
2019-01-09T09:10:01.791Z,1000.57
2019-01-09T09:11:01.762Z,1000.56
2019-01-09T09:12:01.764Z,1000.62
2019-01-09T09:13:01.738Z,1000.58
2019-01-09T09:14:01.725Z,1000.60
2019-01-09T09:15:01.723Z,1000.63
2019-01-09T09:16:01.705Z,1000.67
2019-01-09T09:17:01.702Z,1000.69
2019-01-09T09:18:01.679Z,1000.74
2019-01-09T09:19:01.669Z,1000.77
2019-01-09T09:20:01.658Z,1000.80
2019-01-09T09:21:01.646Z,1000.85
2019-01-09T09:22:01.634Z,1000.80
2019-01-09T09:23:01.625Z,1000.80
2019-01-09T09:24:01.611Z,1000.82
2019-01-09T09:25:01.601Z,1000.86
2019-01-09T09:26:01.588Z,1000.88
2019-01-09T09:27:01.575Z,1000.87
2019-01-09T09:28:01.567Z,1000.91
2019-01-09T09:29:01.558Z,1000.91
2019-01-09T09:30:01.545Z,1000.93
2019-01-09T09:31:01.530Z,1000.96
2019-01-09T09:32:01.521Z,1000.94
2019-01-09T09:33:01.510Z,1000.96
2019-01-09T09:34:01.495Z,1001.03
2019-01-09T09:35:01.484Z,1000.94
2019-01-09T09:36:01.473Z,1001.03
2019-01-09T09:37:01.461Z,1001.11
2019-01-09T09:38:01.451Z,1001.07
2019-01-09T09:39:01.439Z,1001.10
2019-01-09T09:40:01.431Z,1001.13
2019-01-09T09:41:01.417Z,1001.09
2019-01-09T09:42:01.405Z,1001.16
2019-01-09T09:43:01.392Z,1001.17
2019-01-09T09:44:01.386Z,1001.18
2019-01-09T09:45:01.371Z,1001.09
2019-01-09T09:46:01.359Z,1001.26
2019-01-09T09:47:01.349Z,1001.19
2019-01-09T09:48:01.337Z,1001.26
2019-01-09T09:49:01.343Z,1001.30
2019-01-09T09:50:01.314Z,1001.15
2019-01-09T09:51:01.302Z,1001.28
2019-01-09T09:52:01.292Z,1001.26
2019-01-09T09:53:01.279Z,1001.26
2019-01-09T09:54:01.268Z,1001.32
2019-01-09T09:55:01.259Z,1001.35
2019-01-09T09:56:01.251Z,1001.36
2019-01-09T09:57:01.238Z,1001.36
2019-01-09T09:58:05.761Z,1001.28
2019-01-09T09:59:01.213Z,1001.39
2019-01-09T10:00:01.203Z,1001.45
2019-01-09T10:01:01.190Z,1001.45
2019-01-09T10:02:01.179Z,1001.51
2019-01-09T10:03:01.167Z,1001.42
2019-01-09T10:04:01.156Z,1001.50
2019-01-09T10:05:01.250Z,1001.41
2019-01-09T10:06:01.135Z,1001.54
2019-01-09T10:07:01.125Z,1001.53
2019-01-09T10:08:01.114Z,1001.53
2019-01-09T10:09:01.103Z,1001.62
2019-01-09T10:10:01.094Z,1001.55
2019-01-09T10:11:01.080Z,1001.49
2019-01-09T10:12:01.067Z,1001.68
2019-01-09T10:13:01.054Z,1001.63
2019-01-09T10:14:01.046Z,1001.54
2019-01-09T10:15:01.033Z,1001.67
2019-01-09T10:16:01.022Z,1001.63
2019-01-09T10:17:01.013Z,1001.70
2019-01-09T10:18:00.999Z,1001.69
2019-01-09T10:19:00.991Z,1001.65
2019-01-09T10:20:00.985Z,1001.60
2019-01-09T10:21:00.968Z,1001.67
2019-01-09T10:22:00.958Z,1001.70
2019-01-09T10:23:00.944Z,1001.70
2019-01-09T10:24:00.936Z,1001.78
2019-01-09T10:25:00.922Z,1001.74
2019-01-09T10:26:00.915Z,1001.80
2019-01-09T10:27:00.899Z,1001.74
2019-01-09T10:28:00.890Z,1001.80
2019-01-09T10:29:00.950Z,1001.74
2019-01-09T10:30:00.866Z,1001.79
2019-01-09T10:31:00.853Z,1001.80
2019-01-09T10:32:00.847Z,1001.83
2019-01-09T10:33:00.833Z,1001.79
2019-01-09T10:34:00.822Z,1001.93
2019-01-09T10:35:00.812Z,1001.88
2019-01-09T10:36:00.798Z,1001.89
2019-01-09T10:37:00.791Z,1001.88
2019-01-09T10:38:00.776Z,1001.88
2019-01-09T10:39:00.766Z,1001.97
2019-01-09T10:40:00.756Z,1001.94
2019-01-09T10:41:00.744Z,1001.94
2019-01-09T10:42:00.734Z,1001.95
2019-01-09T10:43:00.726Z,1001.96
2019-01-09T10:44:00.714Z,1001.99
2019-01-09T10:45:00.704Z,1001.96
2019-01-09T10:46:00.688Z,1002.07
2019-01-09T10:47:00.683Z,1002.02
2019-01-09T10:48:00.667Z,1001.92
2019-01-09T10:49:00.658Z,1002.00
2019-01-09T10:50:00.646Z,1002.06
2019-01-09T10:51:00.636Z,1002.01
2019-01-09T10:52:00.624Z,1001.98
2019-01-09T10:53:00.612Z,1002.02
2019-01-09T10:54:00.736Z,1002.00
2019-01-09T10:55:00.591Z,1002.01
2019-01-09T10:56:00.581Z,1002.04
2019-01-09T10:57:00.570Z,1002.06
2019-01-09T10:58:00.557Z,1002.13
2019-01-09T10:59:00.550Z,1002.12
2019-01-09T11:00:00.536Z,1002.06
2019-01-09T11:01:00.527Z,1002.13
2019-01-09T11:02:00.515Z,1002.04
2019-01-09T11:03:00.507Z,1002.10
2019-01-09T11:04:00.492Z,1002.18
2019-01-09T11:05:00.482Z,1002.09
2019-01-09T11:06:00.473Z,1002.14
2019-01-09T11:07:00.462Z,1002.15
2019-01-09T11:08:00.448Z,1002.13
2019-01-09T11:09:00.437Z,1002.14
2019-01-09T11:10:00.427Z,1002.15
2019-01-09T11:11:00.416Z,1002.13
2019-01-09T11:12:00.405Z,1002.21
2019-01-09T11:13:00.395Z,1002.18
2019-01-09T11:14:00.382Z,1002.22
2019-01-09T11:15:00.373Z,1002.23
2019-01-09T11:16:00.361Z,1002.23
2019-01-09T11:17:00.357Z,1002.24
2019-01-09T11:18:00.338Z,1002.19
2019-01-09T11:19:00.330Z,1002.23
2019-01-09T11:20:00.319Z,1002.29
2019-01-09T11:21:00.307Z,1002.31
2019-01-09T11:22:00.296Z,1002.30
2019-01-09T11:23:00.309Z,1002.33
2019-01-09T11:24:00.275Z,1002.28
2019-01-09T11:25:01.449Z,1002.40
2019-01-09T11:26:00.261Z,1002.37
2019-01-09T11:27:00.243Z,1002.40
2019-01-09T11:28:00.232Z,1002.37
2019-01-09T11:29:00.221Z,1002.40
2019-01-09T11:30:00.294Z,1002.47
2019-01-09T11:31:00.205Z,1002.45
2019-01-09T11:32:00.188Z,1002.47
2019-01-09T11:33:00.178Z,1002.57
2019-01-09T11:34:00.167Z,1002.49
2019-01-09T11:35:00.254Z,1002.45
2019-01-09T11:36:00.146Z,1002.50
2019-01-09T11:37:00.138Z,1002.52
2019-01-09T11:38:00.127Z,1002.49
2019-01-09T11:39:00.114Z,1002.49
2019-01-09T11:40:00.264Z,1002.45
2019-01-09T11:41:00.094Z,1002.47
2019-01-09T11:42:00.081Z,1002.51
2019-01-09T11:43:00.071Z,1002.52
2019-01-09T11:44:00.059Z,1002.46
2019-01-09T11:45:00.049Z,1002.39
2019-01-09T11:46:00.038Z,1002.50
2019-01-09T11:47:00.029Z,1002.50
2019-01-09T11:48:00.020Z,1002.50
2019-01-09T11:49:00.010Z,1002.49
2019-01-09T11:49:59.999Z,1002.59
2019-01-09T11:50:59.986Z,1002.63
2019-01-09T11:51:59.975Z,1002.55
2019-01-09T11:52:59.964Z,1002.58
2019-01-09T11:53:59.955Z,1002.56
2019-01-09T11:54:59.943Z,1002.61
2019-01-09T11:55:59.934Z,1002.44
2019-01-09T11:56:59.920Z,1002.60
2019-01-09T11:57:59.908Z,1002.65
2019-01-09T11:58:59.901Z,1002.67
2019-01-09T11:59:59.890Z,1002.60
2019-01-09T12:00:59.879Z,1002.59
2019-01-09T12:01:59.866Z,1002.66
2019-01-09T12:02:59.858Z,1002.57
2019-01-09T12:03:59.846Z,1002.66
2019-01-09T12:04:59.835Z,1002.70
2019-01-09T12:05:59.825Z,1002.71
2019-01-09T12:06:59.818Z,1002.66
2019-01-09T12:07:59.804Z,1002.68
2019-01-09T12:09:04.437Z,1002.66
2019-01-09T12:09:59.782Z,1002.73
2019-01-09T12:10:59.786Z,1002.61
2019-01-09T12:11:59.760Z,1002.76
2019-01-09T12:12:59.749Z,1002.74
2019-01-09T12:13:59.737Z,1002.77
2019-01-09T12:14:59.728Z,1002.76
2019-01-09T12:16:07.763Z,1002.83
2019-01-09T12:16:59.712Z,1002.82
2019-01-09T12:17:59.694Z,1002.82
2019-01-09T12:18:59.687Z,1002.81
2019-01-09T12:19:59.673Z,1002.82
2019-01-09T12:20:59.664Z,1002.82